ΕΜΥ, Εθνική Μετεωρολογική Υπηρεσία - Δελτία Καιρού, Προγνώσεις

ΑΕΡΟΝΑΥΤΙΛΙΑ

GREEK AIRPORTS CODES

TAF LGMG 231000Z 2312/2321 30010KT 9999 FEW025 TEMPO 2312/2318 30010G20KT=

EUROPEAN AIRPORTS CODES

LGMG 231500Z 20005KT CAVOK 25/17 Q1013 RMK FEW070 FEW200=